sensor_id;sensor_type;location;lat;lon;timestamp;temperature;humidity
42097;DHT22;27754;45.414;11.084;2022-07-10T00:02:03;21.90;56.50
42097;DHT22;27754;45.414;11.084;2022-07-10T00:04:30;21.90;56.40
42097;DHT22;27754;45.414;11.084;2022-07-10T00:06:57;21.80;56.20
42097;DHT22;27754;45.414;11.084;2022-07-10T00:09:24;21.90;55.80
42097;DHT22;27754;45.414;11.084;2022-07-10T00:11:51;22.00;56.00
42097;DHT22;27754;45.414;11.084;2022-07-10T00:14:18;22.10;55.70
42097;DHT22;27754;45.414;11.084;2022-07-10T00:16:46;22.00;55.70
42097;DHT22;27754;45.414;11.084;2022-07-10T00:19:13;22.00;57.20
42097;DHT22;27754;45.414;11.084;2022-07-10T00:21:40;21.90;59.80
42097;DHT22;27754;45.414;11.084;2022-07-10T00:24:07;22.00;59.90
42097;DHT22;27754;45.414;11.084;2022-07-10T00:26:33;22.00;60.30
42097;DHT22;27754;45.414;11.084;2022-07-10T00:29:01;21.90;60.20
42097;DHT22;27754;45.414;11.084;2022-07-10T00:31:28;21.90;59.20
42097;DHT22;27754;45.414;11.084;2022-07-10T00:33:55;22.00;58.40
42097;DHT22;27754;45.414;11.084;2022-07-10T00:36:21;22.00;58.40
42097;DHT22;27754;45.414;11.084;2022-07-10T00:38:48;21.90;57.20
42097;DHT22;27754;45.414;11.084;2022-07-10T00:41:15;21.80;57.00
42097;DHT22;27754;45.414;11.084;2022-07-10T00:46:19;21.90;56.80
42097;DHT22;27754;45.414;11.084;2022-07-10T00:48:49;21.90;56.70
42097;DHT22;27754;45.414;11.084;2022-07-10T00:51:17;21.90;57.20
42097;DHT22;27754;45.414;11.084;2022-07-10T00:53:44;21.90;56.90
42097;DHT22;27754;45.414;11.084;2022-07-10T00:56:11;21.90;57.90
42097;DHT22;27754;45.414;11.084;2022-07-10T00:58:40;21.90;57.80
42097;DHT22;27754;45.414;11.084;2022-07-10T01:01:08;21.80;58.60
42097;DHT22;27754;45.414;11.084;2022-07-10T01:03:34;21.80;58.80
42097;DHT22;27754;45.414;11.084;2022-07-10T01:06:02;21.80;59.30
42097;DHT22;27754;45.414;11.084;2022-07-10T01:08:29;21.80;59.40
42097;DHT22;27754;45.414;11.084;2022-07-10T01:10:57;21.80;59.60
42097;DHT22;27754;45.414;11.084;2022-07-10T01:13:24;21.80;59.10
42097;DHT22;27754;45.414;11.084;2022-07-10T01:15:51;21.80;57.80
42097;DHT22;27754;45.414;11.084;2022-07-10T01:18:19;21.80;57.80
42097;DHT22;27754;45.414;11.084;2022-07-10T01:20:46;21.70;57.80
42097;DHT22;27754;45.414;11.084;2022-07-10T01:23:12;21.80;57.60
42097;DHT22;27754;45.414;11.084;2022-07-10T01:25:39;21.90;57.80
42097;DHT22;27754;45.414;11.084;2022-07-10T01:28:06;21.90;57.50
42097;DHT22;27754;45.414;11.084;2022-07-10T01:30:33;21.90;57.30
42097;DHT22;27754;45.414;11.084;2022-07-10T01:33:00;21.90;57.30
42097;DHT22;27754;45.414;11.084;2022-07-10T01:35:27;21.90;56.80
42097;DHT22;27754;45.414;11.084;2022-07-10T01:37:54;21.80;57.20
42097;DHT22;27754;45.414;11.084;2022-07-10T01:40:20;21.80;56.80
42097;DHT22;27754;45.414;11.084;2022-07-10T01:42:47;21.80;57.00
42097;DHT22;27754;45.414;11.084;2022-07-10T01:45:15;21.80;57.00
42097;DHT22;27754;45.414;11.084;2022-07-10T01:47:42;21.80;57.50
42097;DHT22;27754;45.414;11.084;2022-07-10T01:50:10;21.80;57.60
42097;DHT22;27754;45.414;11.084;2022-07-10T01:52:37;21.80;57.80
42097;DHT22;27754;45.414;11.084;2022-07-10T01:55:04;21.80;58.10
42097;DHT22;27754;45.414;11.084;2022-07-10T01:57:31;21.80;58.00
42097;DHT22;27754;45.414;11.084;2022-07-10T01:59:58;21.70;57.60
42097;DHT22;27754;45.414;11.084;2022-07-10T02:02:25;21.70;58.10
42097;DHT22;27754;45.414;11.084;2022-07-10T02:04:52;21.80;57.60
42097;DHT22;27754;45.414;11.084;2022-07-10T02:07:19;21.80;57.80
42097;DHT22;27754;45.414;11.084;2022-07-10T02:09:48;21.70;57.90
42097;DHT22;27754;45.414;11.084;2022-07-10T02:12:14;21.80;58.40
42097;DHT22;27754;45.414;11.084;2022-07-10T02:14:42;21.80;58.70
42097;DHT22;27754;45.414;11.084;2022-07-10T02:17:09;21.70;58.70
42097;DHT22;27754;45.414;11.084;2022-07-10T02:19:36;21.70;58.40
42097;DHT22;27754;45.414;11.084;2022-07-10T02:22:03;21.60;58.90
42097;DHT22;27754;45.414;11.084;2022-07-10T02:24:30;21.50;59.10
42097;DHT22;27754;45.414;11.084;2022-07-10T02:26:57;21.60;58.90
42097;DHT22;27754;45.414;11.084;2022-07-10T02:29:23;21.50;59.50
42097;DHT22;27754;45.414;11.084;2022-07-10T02:31:51;21.40;59.80
42097;DHT22;27754;45.414;11.084;2022-07-10T02:34:18;21.50;59.80
42097;DHT22;27754;45.414;11.084;2022-07-10T02:36:45;21.40;59.80
42097;DHT22;27754;45.414;11.084;2022-07-10T02:39:12;21.30;60.10
42097;DHT22;27754;45.414;11.084;2022-07-10T02:41:38;21.20;60.40
42097;DHT22;27754;45.414;11.084;2022-07-10T02:44:05;21.10;60.40
42097;DHT22;27754;45.414;11.084;2022-07-10T02:46:32;21.00;60.30
42097;DHT22;27754;45.414;11.084;2022-07-10T02:48:59;21.00;60.70
42097;DHT22;27754;45.414;11.084;2022-07-10T02:51:26;21.00;60.50
42097;DHT22;27754;45.414;11.084;2022-07-10T02:53:53;20.90;60.60
42097;DHT22;27754;45.414;11.084;2022-07-10T02:56:19;20.90;61.30
42097;DHT22;27754;45.414;11.084;2022-07-10T02:58:46;20.90;61.70
42097;DHT22;27754;45.414;11.084;2022-07-10T03:01:14;20.90;62.20
42097;DHT22;27754;45.414;11.084;2022-07-10T03:03:41;20.80;62.30
42097;DHT22;27754;45.414;11.084;2022-07-10T03:06:08;20.80;62.00
42097;DHT22;27754;45.414;11.084;2022-07-10T03:08:35;20.90;61.20
42097;DHT22;27754;45.414;11.084;2022-07-10T03:11:02;20.90;61.60
42097;DHT22;27754;45.414;11.084;2022-07-10T03:13:29;20.90;61.50
42097;DHT22;27754;45.414;11.084;2022-07-10T03:15:56;20.90;61.40
42097;DHT22;27754;45.414;11.084;2022-07-10T03:18:23;20.90;61.20
42097;DHT22;27754;45.414;11.084;2022-07-10T03:20:50;20.80;61.60
42097;DHT22;27754;45.414;11.084;2022-07-10T03:23:16;20.80;61.60
42097;DHT22;27754;45.414;11.084;2022-07-10T03:25:43;20.70;61.50
42097;DHT22;27754;45.414;11.084;2022-07-10T03:28:10;20.80;61.40
42097;DHT22;27754;45.414;11.084;2022-07-10T03:30:37;20.70;61.80
42097;DHT22;27754;45.414;11.084;2022-07-10T03:33:04;20.70;61.80
42097;DHT22;27754;45.414;11.084;2022-07-10T03:35:31;20.70;62.10
42097;DHT22;27754;45.414;11.084;2022-07-10T03:37:58;20.60;62.30
42097;DHT22;27754;45.414;11.084;2022-07-10T03:40:24;20.60;62.10
42097;DHT22;27754;45.414;11.084;2022-07-10T03:42:53;20.60;61.90
42097;DHT22;27754;45.414;11.084;2022-07-10T03:45:19;20.60;62.00
42097;DHT22;27754;45.414;11.084;2022-07-10T03:47:46;20.70;62.00
42097;DHT22;27754;45.414;11.084;2022-07-10T03:50:13;20.70;61.80
42097;DHT22;27754;45.414;11.084;2022-07-10T03:52:40;20.70;61.60
42097;DHT22;27754;45.414;11.084;2022-07-10T03:55:07;20.80;61.70
42097;DHT22;27754;45.414;11.084;2022-07-10T03:57:34;20.80;61.70
42097;DHT22;27754;45.414;11.084;2022-07-10T04:00:20;20.80;61.70
42097;DHT22;27754;45.414;11.084;2022-07-10T04:02:49;20.80;61.60
42097;DHT22;27754;45.414;11.084;2022-07-10T04:05:20;21.00;61.10
42097;DHT22;27754;45.414;11.084;2022-07-10T04:07:47;21.50;59.80
42097;DHT22;27754;45.414;11.084;2022-07-10T04:10:14;22.00;58.30
42097;DHT22;27754;45.414;11.084;2022-07-10T04:12:42;22.30;58.10
42097;DHT22;27754;45.414;11.084;2022-07-10T04:15:09;22.10;58.00
42097;DHT22;27754;45.414;11.084;2022-07-10T04:17:36;22.20;57.80
42097;DHT22;27754;45.414;11.084;2022-07-10T04:20:03;22.30;57.50
42097;DHT22;27754;45.414;11.084;2022-07-10T04:22:30;22.40;57.30
42097;DHT22;27754;45.414;11.084;2022-07-10T04:24:57;22.80;56.30
42097;DHT22;27754;45.414;11.084;2022-07-10T04:27:24;23.10;55.80
42097;DHT22;27754;45.414;11.084;2022-07-10T04:29:50;23.30;55.10
42097;DHT22;27754;45.414;11.084;2022-07-10T04:32:18;23.00;56.00
42097;DHT22;27754;45.414;11.084;2022-07-10T04:34:45;22.90;56.10
42097;DHT22;27754;45.414;11.084;2022-07-10T04:37:12;22.80;56.50
42097;DHT22;27754;45.414;11.084;2022-07-10T04:39:39;22.60;56.50
42097;DHT22;27754;45.414;11.084;2022-07-10T04:42:06;22.40;57.20
42097;DHT22;27754;45.414;11.084;2022-07-10T04:44:33;22.40;57.20
42097;DHT22;27754;45.414;11.084;2022-07-10T04:47:00;22.40;56.80
42097;DHT22;27754;45.414;11.084;2022-07-10T04:49:27;22.30;57.70
42097;DHT22;27754;45.414;11.084;2022-07-10T04:51:55;22.30;57.30
42097;DHT22;27754;45.414;11.084;2022-07-10T04:54:22;22.40;56.90
42097;DHT22;27754;45.414;11.084;2022-07-10T04:56:49;22.60;56.30
42097;DHT22;27754;45.414;11.084;2022-07-10T04:59:16;22.80;55.60
42097;DHT22;27754;45.414;11.084;2022-07-10T05:01:43;22.90;55.60
42097;DHT22;27754;45.414;11.084;2022-07-10T05:04:10;23.10;55.00
42097;DHT22;27754;45.414;11.084;2022-07-10T05:06:37;23.10;55.40
42097;DHT22;27754;45.414;11.084;2022-07-10T05:09:04;23.30;54.80
42097;DHT22;27754;45.414;11.084;2022-07-10T05:11:31;23.30;54.90
42097;DHT22;27754;45.414;11.084;2022-07-10T05:13:58;23.40;54.70
42097;DHT22;27754;45.414;11.084;2022-07-10T05:16:25;23.50;54.30
42097;DHT22;27754;45.414;11.084;2022-07-10T05:18:52;23.90;53.50
42097;DHT22;27754;45.414;11.084;2022-07-10T05:21:18;24.40;52.20
42097;DHT22;27754;45.414;11.084;2022-07-10T05:23:45;24.80;51.60
42097;DHT22;27754;45.414;11.084;2022-07-10T05:26:13;25.00;50.80
42097;DHT22;27754;45.414;11.084;2022-07-10T05:28:39;25.10;50.20
42097;DHT22;27754;45.414;11.084;2022-07-10T05:31:07;25.30;50.80
42097;DHT22;27754;45.414;11.084;2022-07-10T05:33:34;25.30;50.30
42097;DHT22;27754;45.414;11.084;2022-07-10T05:36:01;25.60;50.30
42097;DHT22;27754;45.414;11.084;2022-07-10T05:38:28;25.70;50.40
42097;DHT22;27754;45.414;11.084;2022-07-10T05:40:54;25.90;50.40
42097;DHT22;27754;45.414;11.084;2022-07-10T05:43:21;26.10;49.70
42097;DHT22;27754;45.414;11.084;2022-07-10T05:45:48;26.10;49.60
42097;DHT22;27754;45.414;11.084;2022-07-10T05:48:20;26.20;49.20
42097;DHT22;27754;45.414;11.084;2022-07-10T05:50:47;26.50;48.40
42097;DHT22;27754;45.414;11.084;2022-07-10T05:53:14;26.80;48.70
42097;DHT22;27754;45.414;11.084;2022-07-10T05:55:41;27.10;47.50
42097;DHT22;27754;45.414;11.084;2022-07-10T05:58:08;27.20;46.80
42097;DHT22;27754;45.414;11.084;2022-07-10T06:00:34;27.20;47.00
42097;DHT22;27754;45.414;11.084;2022-07-10T06:03:01;27.30;46.70
42097;DHT22;27754;45.414;11.084;2022-07-10T06:05:28;27.30;47.00
42097;DHT22;27754;45.414;11.084;2022-07-10T06:07:55;27.40;46.60
42097;DHT22;27754;45.414;11.084;2022-07-10T06:10:22;27.70;46.20
42097;DHT22;27754;45.414;11.084;2022-07-10T06:12:49;27.80;45.70
42097;DHT22;27754;45.414;11.084;2022-07-10T06:15:16;28.00;45.40
42097;DHT22;27754;45.414;11.084;2022-07-10T06:17:44;28.10;45.00
42097;DHT22;27754;45.414;11.084;2022-07-10T06:20:11;28.00;45.70
42097;DHT22;27754;45.414;11.084;2022-07-10T06:22:38;28.10;45.00
42097;DHT22;27754;45.414;11.084;2022-07-10T06:25:07;28.30;45.10
42097;DHT22;27754;45.414;11.084;2022-07-10T06:27:34;28.50;44.40
42097;DHT22;27754;45.414;11.084;2022-07-10T06:30:01;28.50;44.70
42097;DHT22;27754;45.414;11.084;2022-07-10T06:32:29;28.70;44.10
42097;DHT22;27754;45.414;11.084;2022-07-10T06:34:55;28.80;43.20
42097;DHT22;27754;45.414;11.084;2022-07-10T06:37:22;28.70;43.90
42097;DHT22;27754;45.414;11.084;2022-07-10T06:39:49;29.00;42.80
42097;DHT22;27754;45.414;11.084;2022-07-10T06:42:16;29.10;42.90
42097;DHT22;27754;45.414;11.084;2022-07-10T06:44:47;29.20;43.40
42097;DHT22;27754;45.414;11.084;2022-07-10T06:47:15;29.30;43.70
42097;DHT22;27754;45.414;11.084;2022-07-10T06:50:02;29.50;43.40
42097;DHT22;27754;45.414;11.084;2022-07-10T06:52:30;29.30;43.10
42097;DHT22;27754;45.414;11.084;2022-07-10T06:54:57;29.50;43.10
42097;DHT22;27754;45.414;11.084;2022-07-10T06:57:24;29.30;41.90
42097;DHT22;27754;45.414;11.084;2022-07-10T06:59:51;29.60;41.50
42097;DHT22;27754;45.414;11.084;2022-07-10T07:02:19;29.60;40.10
42097;DHT22;27754;45.414;11.084;2022-07-10T07:04:46;29.80;39.40
42097;DHT22;27754;45.414;11.084;2022-07-10T07:07:13;29.80;39.80
42097;DHT22;27754;45.414;11.084;2022-07-10T07:09:40;29.80;38.40
42097;DHT22;27754;45.414;11.084;2022-07-10T07:12:08;29.90;35.90
42097;DHT22;27754;45.414;11.084;2022-07-10T07:14:35;30.00;36.10
42097;DHT22;27754;45.414;11.084;2022-07-10T07:17:10;30.10;35.40
42097;DHT22;27754;45.414;11.084;2022-07-10T07:19:38;30.10;35.90
42097;DHT22;27754;45.414;11.084;2022-07-10T07:22:24;30.00;35.80
42097;DHT22;27754;45.414;11.084;2022-07-10T07:25:10;30.20;34.10
42097;DHT22;27754;45.414;11.084;2022-07-10T07:27:37;30.30;33.90
42097;DHT22;27754;45.414;11.084;2022-07-10T07:30:05;30.40;34.20
42097;DHT22;27754;45.414;11.084;2022-07-10T07:32:32;30.50;33.70
42097;DHT22;27754;45.414;11.084;2022-07-10T07:35:00;30.70;34.20
42097;DHT22;27754;45.414;11.084;2022-07-10T07:37:40;30.90;33.00
42097;DHT22;27754;45.414;11.084;2022-07-10T07:40:08;30.90;34.00
42097;DHT22;27754;45.414;11.084;2022-07-10T07:42:36;30.80;32.70
42097;DHT22;27754;45.414;11.084;2022-07-10T07:45:03;31.00;33.40
42097;DHT22;27754;45.414;11.084;2022-07-10T07:47:31;31.10;34.00
42097;DHT22;27754;45.414;11.084;2022-07-10T07:50:01;31.20;32.80
42097;DHT22;27754;45.414;11.084;2022-07-10T07:52:29;31.10;32.80
42097;DHT22;27754;45.414;11.084;2022-07-10T07:54:57;31.30;33.50
42097;DHT22;27754;45.414;11.084;2022-07-10T07:57:24;31.40;33.00
42097;DHT22;27754;45.414;11.084;2022-07-10T07:59:51;31.60;32.60
42097;DHT22;27754;45.414;11.084;2022-07-10T08:02:18;31.50;33.70
42097;DHT22;27754;45.414;11.084;2022-07-10T08:04:45;31.40;33.30
42097;DHT22;27754;45.414;11.084;2022-07-10T08:07:12;31.30;33.80
42097;DHT22;27754;45.414;11.084;2022-07-10T08:09:39;31.70;34.40
42097;DHT22;27754;45.414;11.084;2022-07-10T08:12:06;31.70;34.10
42097;DHT22;27754;45.414;11.084;2022-07-10T08:14:33;31.10;33.80
42097;DHT22;27754;45.414;11.084;2022-07-10T08:16:59;31.20;35.10
42097;DHT22;27754;45.414;11.084;2022-07-10T08:19:27;31.40;35.40
42097;DHT22;27754;45.414;11.084;2022-07-10T08:21:53;31.60;36.00
42097;DHT22;27754;45.414;11.084;2022-07-10T08:24:20;31.70;34.90
42097;DHT22;27754;45.414;11.084;2022-07-10T08:26:47;31.70;33.90
42097;DHT22;27754;45.414;11.084;2022-07-10T08:29:14;31.80;34.80
42097;DHT22;27754;45.414;11.084;2022-07-10T08:31:41;31.80;33.90
42097;DHT22;27754;45.414;11.084;2022-07-10T08:34:08;31.80;34.80
42097;DHT22;27754;45.414;11.084;2022-07-10T08:36:35;31.80;33.80
42097;DHT22;27754;45.414;11.084;2022-07-10T08:39:08;31.80;34.10
42097;DHT22;27754;45.414;11.084;2022-07-10T08:41:35;31.80;33.10
42097;DHT22;27754;45.414;11.084;2022-07-10T08:44:03;31.80;34.10
42097;DHT22;27754;45.414;11.084;2022-07-10T08:46:30;31.70;33.60
42097;DHT22;27754;45.414;11.084;2022-07-10T08:48:58;31.70;33.90
42097;DHT22;27754;45.414;11.084;2022-07-10T08:51:45;31.80;33.90
42097;DHT22;27754;45.414;11.084;2022-07-10T08:54:14;32.00;34.80
42097;DHT22;27754;45.414;11.084;2022-07-10T08:56:48;32.20;34.40
42097;DHT22;27754;45.414;11.084;2022-07-10T08:59:15;32.20;34.20
42097;DHT22;27754;45.414;11.084;2022-07-10T09:01:42;32.30;34.20
42097;DHT22;27754;45.414;11.084;2022-07-10T09:04:15;32.00;35.10
42097;DHT22;27754;45.414;11.084;2022-07-10T09:06:43;32.10;34.40
42097;DHT22;27754;45.414;11.084;2022-07-10T09:09:10;32.10;33.70
42097;DHT22;27754;45.414;11.084;2022-07-10T09:11:41;32.30;33.50
42097;DHT22;27754;45.414;11.084;2022-07-10T09:14:09;32.20;34.70
42097;DHT22;27754;45.414;11.084;2022-07-10T09:16:40;32.30;34.20
42097;DHT22;27754;45.414;11.084;2022-07-10T09:19:20;32.30;34.10
42097;DHT22;27754;45.414;11.084;2022-07-10T09:22:09;32.20;34.70
42097;DHT22;27754;45.414;11.084;2022-07-10T09:24:38;31.90;35.10
42097;DHT22;27754;45.414;11.084;2022-07-10T09:27:05;32.00;34.50
42097;DHT22;27754;45.414;11.084;2022-07-10T09:29:32;32.20;34.70
42097;DHT22;27754;45.414;11.084;2022-07-10T09:32:01;32.10;34.50
42097;DHT22;27754;45.414;11.084;2022-07-10T09:34:34;32.00;35.90
42097;DHT22;27754;45.414;11.084;2022-07-10T09:39:58;31.90;35.60
42097;DHT22;27754;45.414;11.084;2022-07-10T09:42:32;31.90;36.60
42097;DHT22;27754;45.414;11.084;2022-07-10T09:47:39;32.00;35.80
42097;DHT22;27754;45.414;11.084;2022-07-10T09:52:45;31.80;36.30
42097;DHT22;27754;45.414;11.084;2022-07-10T09:55:13;31.90;35.50
42097;DHT22;27754;45.414;11.084;2022-07-10T09:57:40;31.80;36.20
42097;DHT22;27754;45.414;11.084;2022-07-10T10:00:08;31.80;36.00
42097;DHT22;27754;45.414;11.084;2022-07-10T10:02:37;32.00;35.40
42097;DHT22;27754;45.414;11.084;2022-07-10T10:05:04;32.00;34.90
42097;DHT22;27754;45.414;11.084;2022-07-10T10:07:32;32.20;35.60
42097;DHT22;27754;45.414;11.084;2022-07-10T10:10:00;32.20;35.10
42097;DHT22;27754;45.414;11.084;2022-07-10T10:12:31;32.00;36.70
42097;DHT22;27754;45.414;11.084;2022-07-10T10:15:02;32.00;36.40
42097;DHT22;27754;45.414;11.084;2022-07-10T10:17:29;32.00;35.10
42097;DHT22;27754;45.414;11.084;2022-07-10T10:19:56;32.00;35.70
42097;DHT22;27754;45.414;11.084;2022-07-10T10:22:43;31.90;36.40
42097;DHT22;27754;45.414;11.084;2022-07-10T10:25:10;31.80;36.20
42097;DHT22;27754;45.414;11.084;2022-07-10T10:27:38;31.80;35.60
42097;DHT22;27754;45.414;11.084;2022-07-10T10:30:05;32.00;35.60
42097;DHT22;27754;45.414;11.084;2022-07-10T10:32:32;32.00;36.50
42097;DHT22;27754;45.414;11.084;2022-07-10T10:34:59;32.10;35.60
42097;DHT22;27754;45.414;11.084;2022-07-10T10:39:57;31.90;36.00
42097;DHT22;27754;45.414;11.084;2022-07-10T10:42:32;32.00;35.80
42097;DHT22;27754;45.414;11.084;2022-07-10T10:47:58;32.10;36.00
42097;DHT22;27754;45.414;11.084;2022-07-10T10:50:49;32.10;35.50
42097;DHT22;27754;45.414;11.084;2022-07-10T10:53:21;32.30;35.70
42097;DHT22;27754;45.414;11.084;2022-07-10T10:58:37;31.80;37.30
42097;DHT22;27754;45.414;11.084;2022-07-10T11:09:30;31.40;37.10
42097;DHT22;27754;45.414;11.084;2022-07-10T11:12:05;31.50;37.20
42097;DHT22;27754;45.414;11.084;2022-07-10T11:14:34;31.60;37.80
42097;DHT22;27754;45.414;11.084;2022-07-10T11:17:01;31.70;37.30
42097;DHT22;27754;45.414;11.084;2022-07-10T11:19:29;31.50;36.70
42097;DHT22;27754;45.414;11.084;2022-07-10T11:29:57;31.30;37.30
42097;DHT22;27754;45.414;11.084;2022-07-10T11:32:24;31.30;37.70
42097;DHT22;27754;45.414;11.084;2022-07-10T11:34:51;31.30;37.80
42097;DHT22;27754;45.414;11.084;2022-07-10T11:37:18;31.40;38.00
42097;DHT22;27754;45.414;11.084;2022-07-10T11:39:46;31.30;37.20
42097;DHT22;27754;45.414;11.084;2022-07-10T11:42:13;31.50;37.60
42097;DHT22;27754;45.414;11.084;2022-07-10T11:44:40;31.70;37.20
42097;DHT22;27754;45.414;11.084;2022-07-10T11:47:07;31.70;38.00
42097;DHT22;27754;45.414;11.084;2022-07-10T11:49:34;31.80;37.50
42097;DHT22;27754;45.414;11.084;2022-07-10T11:52:10;32.00;37.40
42097;DHT22;27754;45.414;11.084;2022-07-10T11:54:38;31.90;37.60
42097;DHT22;27754;45.414;11.084;2022-07-10T11:57:07;31.80;37.40
42097;DHT22;27754;45.414;11.084;2022-07-10T11:59:35;31.80;37.40
42097;DHT22;27754;45.414;11.084;2022-07-10T12:02:02;31.90;36.90
42097;DHT22;27754;45.414;11.084;2022-07-10T12:04:29;31.90;36.90
42097;DHT22;27754;45.414;11.084;2022-07-10T12:06:56;31.80;36.60
42097;DHT22;27754;45.414;11.084;2022-07-10T12:09:23;31.80;36.30
42097;DHT22;27754;45.414;11.084;2022-07-10T12:12:00;31.80;36.00
42097;DHT22;27754;45.414;11.084;2022-07-10T12:14:27;31.80;35.80
42097;DHT22;27754;45.414;11.084;2022-07-10T12:16:55;31.70;36.40
42097;DHT22;27754;45.414;11.084;2022-07-10T12:19:22;31.90;35.70
42097;DHT22;27754;45.414;11.084;2022-07-10T12:21:50;32.00;37.10
42097;DHT22;27754;45.414;11.084;2022-07-10T12:24:23;32.00;36.40
42097;DHT22;27754;45.414;11.084;2022-07-10T12:26:50;31.90;36.60
42097;DHT22;27754;45.414;11.084;2022-07-10T12:29:22;32.10;36.10
42097;DHT22;27754;45.414;11.084;2022-07-10T12:31:50;32.10;35.90
42097;DHT22;27754;45.414;11.084;2022-07-10T12:34:17;31.90;36.10
42097;DHT22;27754;45.414;11.084;2022-07-10T12:39:14;31.80;36.80
42097;DHT22;27754;45.414;11.084;2022-07-10T12:41:55;32.10;37.80
42097;DHT22;27754;45.414;11.084;2022-07-10T12:44:29;32.30;37.70
42097;DHT22;27754;45.414;11.084;2022-07-10T12:47:03;32.30;38.20
42097;DHT22;27754;45.414;11.084;2022-07-10T12:49:30;32.40;35.30
42097;DHT22;27754;45.414;11.084;2022-07-10T12:52:20;32.50;35.80
42097;DHT22;27754;45.414;11.084;2022-07-10T12:54:47;32.30;36.90
42097;DHT22;27754;45.414;11.084;2022-07-10T12:57:14;32.40;37.30
42097;DHT22;27754;45.414;11.084;2022-07-10T12:59:41;32.30;38.00
42097;DHT22;27754;45.414;11.084;2022-07-10T13:02:15;32.40;37.70
42097;DHT22;27754;45.414;11.084;2022-07-10T13:04:53;32.50;37.60
42097;DHT22;27754;45.414;11.084;2022-07-10T13:10:00;32.80;36.90
42097;DHT22;27754;45.414;11.084;2022-07-10T13:12:30;32.60;37.00
42097;DHT22;27754;45.414;11.084;2022-07-10T13:14:57;32.50;37.50
42097;DHT22;27754;45.414;11.084;2022-07-10T13:17:24;32.60;37.60
42097;DHT22;27754;45.414;11.084;2022-07-10T13:19:51;32.60;37.70
42097;DHT22;27754;45.414;11.084;2022-07-10T13:22:18;32.70;38.00
42097;DHT22;27754;45.414;11.084;2022-07-10T13:24:45;32.80;36.80
42097;DHT22;27754;45.414;11.084;2022-07-10T13:27:12;33.10;35.90
42097;DHT22;27754;45.414;11.084;2022-07-10T13:29:39;33.10;35.40
42097;DHT22;27754;45.414;11.084;2022-07-10T13:32:06;32.80;36.40
42097;DHT22;27754;45.414;11.084;2022-07-10T13:34:33;32.70;35.70
42097;DHT22;27754;45.414;11.084;2022-07-10T13:37:01;32.60;35.90
42097;DHT22;27754;45.414;11.084;2022-07-10T13:39:28;32.80;35.50
42097;DHT22;27754;45.414;11.084;2022-07-10T13:41:55;32.90;36.90
42097;DHT22;27754;45.414;11.084;2022-07-10T13:44:22;33.00;36.60
42097;DHT22;27754;45.414;11.084;2022-07-10T13:46:49;33.00;36.80
42097;DHT22;27754;45.414;11.084;2022-07-10T13:49:16;33.00;36.40
42097;DHT22;27754;45.414;11.084;2022-07-10T13:51:43;33.20;36.10
42097;DHT22;27754;45.414;11.084;2022-07-10T13:54:10;33.30;35.50
42097;DHT22;27754;45.414;11.084;2022-07-10T13:56:37;33.40;35.20
42097;DHT22;27754;45.414;11.084;2022-07-10T13:59:04;33.70;34.90
42097;DHT22;27754;45.414;11.084;2022-07-10T14:01:31;33.40;34.60
42097;DHT22;27754;45.414;11.084;2022-07-10T14:03:58;33.50;34.00
42097;DHT22;27754;45.414;11.084;2022-07-10T14:06:26;33.50;34.10
42097;DHT22;27754;45.414;11.084;2022-07-10T14:08:53;33.60;34.60
42097;DHT22;27754;45.414;11.084;2022-07-10T14:11:20;33.30;35.60
42097;DHT22;27754;45.414;11.084;2022-07-10T14:13:47;33.40;36.20
42097;DHT22;27754;45.414;11.084;2022-07-10T14:16:14;33.60;36.20
42097;DHT22;27754;45.414;11.084;2022-07-10T14:18:40;33.70;34.90
42097;DHT22;27754;45.414;11.084;2022-07-10T14:21:09;33.70;34.60
42097;DHT22;27754;45.414;11.084;2022-07-10T14:23:37;33.70;34.80
42097;DHT22;27754;45.414;11.084;2022-07-10T14:26:05;33.80;35.40
42097;DHT22;27754;45.414;11.084;2022-07-10T14:28:32;34.10;33.80
42097;DHT22;27754;45.414;11.084;2022-07-10T14:31:02;34.10;34.00
42097;DHT22;27754;45.414;11.084;2022-07-10T14:33:30;34.10;34.40
42097;DHT22;27754;45.414;11.084;2022-07-10T14:35:58;34.00;33.00
42097;DHT22;27754;45.414;11.084;2022-07-10T14:38:25;33.80;32.30
42097;DHT22;27754;45.414;11.084;2022-07-10T14:40:52;33.70;33.60
42097;DHT22;27754;45.414;11.084;2022-07-10T14:43:19;33.40;33.80
42097;DHT22;27754;45.414;11.084;2022-07-10T14:45:46;33.30;34.10
42097;DHT22;27754;45.414;11.084;2022-07-10T14:48:21;33.00;34.40
42097;DHT22;27754;45.414;11.084;2022-07-10T14:50:47;32.80;34.30
42097;DHT22;27754;45.414;11.084;2022-07-10T14:53:14;32.50;34.80
42097;DHT22;27754;45.414;11.084;2022-07-10T14:55:41;32.50;35.50
42097;DHT22;27754;45.414;11.084;2022-07-10T14:58:08;32.60;35.20
42097;DHT22;27754;45.414;11.084;2022-07-10T15:00:35;32.80;34.90
42097;DHT22;27754;45.414;11.084;2022-07-10T15:03:02;32.80;34.10
42097;DHT22;27754;45.414;11.084;2022-07-10T15:05:30;33.00;34.30
42097;DHT22;27754;45.414;11.084;2022-07-10T15:07:57;33.30;34.50
42097;DHT22;27754;45.414;11.084;2022-07-10T15:10:24;33.30;34.70
42097;DHT22;27754;45.414;11.084;2022-07-10T15:12:50;33.60;34.70
42097;DHT22;27754;45.414;11.084;2022-07-10T15:15:18;33.60;35.80
42097;DHT22;27754;45.414;11.084;2022-07-10T15:17:45;33.30;36.00
42097;DHT22;27754;45.414;11.084;2022-07-10T15:20:12;33.00;35.20
42097;DHT22;27754;45.414;11.084;2022-07-10T15:22:39;32.80;35.70
42097;DHT22;27754;45.414;11.084;2022-07-10T15:25:06;32.80;36.20
42097;DHT22;27754;45.414;11.084;2022-07-10T15:27:33;32.80;36.40
42097;DHT22;27754;45.414;11.084;2022-07-10T15:30:00;33.00;35.90
42097;DHT22;27754;45.414;11.084;2022-07-10T15:32:27;32.80;35.90
42097;DHT22;27754;45.414;11.084;2022-07-10T15:34:54;32.70;35.70
42097;DHT22;27754;45.414;11.084;2022-07-10T15:37:21;32.70;35.70
42097;DHT22;27754;45.414;11.084;2022-07-10T15:39:49;32.60;36.00
42097;DHT22;27754;45.414;11.084;2022-07-10T15:42:16;32.40;36.60
42097;DHT22;27754;45.414;11.084;2022-07-10T15:44:43;32.60;36.20
42097;DHT22;27754;45.414;11.084;2022-07-10T15:47:10;32.50;36.10
42097;DHT22;27754;45.414;11.084;2022-07-10T15:49:38;32.50;36.30
42097;DHT22;27754;45.414;11.084;2022-07-10T15:52:04;32.50;36.30
42097;DHT22;27754;45.414;11.084;2022-07-10T15:54:31;32.40;36.50
42097;DHT22;27754;45.414;11.084;2022-07-10T15:56:59;32.40;36.70
42097;DHT22;27754;45.414;11.084;2022-07-10T15:59:26;32.40;36.50
42097;DHT22;27754;45.414;11.084;2022-07-10T16:01:53;32.40;36.80